createdAt,value
2018-07-01T00:01:02.201Z,15.16
2018-07-01T00:03:38.126Z,15.10
2018-07-01T00:06:15.223Z,15.04
2018-07-01T00:08:52.089Z,14.92
2018-07-01T00:11:29.558Z,14.96
2018-07-01T00:14:05.182Z,14.94
2018-07-01T00:16:42.068Z,14.85
2018-07-01T00:19:17.980Z,14.84
2018-07-01T00:21:53.709Z,14.78
2018-07-01T00:24:29.163Z,14.73
2018-07-01T00:27:05.418Z,14.77
2018-07-01T00:29:41.608Z,14.62
2018-07-01T00:32:17.384Z,14.53
2018-07-01T00:34:54.996Z,14.55
2018-07-01T00:37:30.610Z,14.48
2018-07-01T00:40:06.693Z,14.42
2018-07-01T00:42:42.474Z,14.39
2018-07-01T00:45:18.947Z,14.23
2018-07-01T00:47:54.493Z,14.30
2018-07-01T00:50:29.957Z,14.28
2018-07-01T00:53:06.084Z,14.24
2018-07-01T00:55:42.616Z,14.19
2018-07-01T00:58:18.433Z,14.31
2018-07-01T01:00:55.023Z,14.08
2018-07-01T01:03:31.030Z,13.95
2018-07-01T01:06:07.967Z,14.07
2018-07-01T01:08:43.415Z,14.10
2018-07-01T01:11:18.954Z,13.82
2018-07-01T01:13:55.016Z,13.66
2018-07-01T01:16:32.153Z,13.76
2018-07-01T01:19:09.359Z,13.72
2018-07-01T01:21:46.057Z,13.43
2018-07-01T01:24:22.182Z,13.11
2018-07-01T01:26:57.525Z,12.91
2018-07-01T01:29:34.064Z,12.77
2018-07-01T01:32:09.747Z,12.45
2018-07-01T01:34:46.231Z,12.49
2018-07-01T01:37:22.093Z,12.21
2018-07-01T01:39:57.894Z,12.16
2018-07-01T01:42:43.081Z,12.07
2018-07-01T01:45:38.565Z,12.22
2018-07-01T01:48:19.437Z,12.40
2018-07-01T01:51:03.479Z,12.42
2018-07-01T01:53:48.784Z,12.27
2018-07-01T01:56:33.955Z,11.87
2018-07-01T01:59:14.367Z,11.61
2018-07-01T02:01:59.619Z,11.42
2018-07-01T02:05:10.793Z,11.54
2018-07-01T02:07:51.459Z,11.48
2018-07-01T02:10:28.176Z,11.51
2018-07-01T02:13:04.619Z,11.39
2018-07-01T02:15:44.285Z,11.28
2018-07-01T02:18:20.817Z,11.13
2018-07-01T02:20:57.127Z,11.00
2018-07-01T02:23:39.169Z,10.90
2018-07-01T02:26:16.500Z,10.97
2018-07-01T02:28:53.592Z,10.75
2018-07-01T02:31:29.186Z,10.55
2018-07-01T02:34:05.094Z,10.58
2018-07-01T02:36:40.598Z,10.62
2018-07-01T02:39:16.795Z,10.62
2018-07-01T02:41:53.091Z,10.73
2018-07-01T02:44:30.413Z,10.74
2018-07-01T02:47:07.850Z,10.70
2018-07-01T02:49:44.417Z,10.58
2018-07-01T02:52:20.214Z,10.42
2018-07-01T02:54:56.737Z,10.24
2018-07-01T02:57:32.566Z,10.49
2018-07-01T03:00:09.477Z,10.40
2018-07-01T03:02:45.622Z,10.52
2018-07-01T03:05:22.509Z,10.50
2018-07-01T03:07:59.111Z,10.31
2018-07-01T03:10:35.369Z,10.26
2018-07-01T03:13:11.849Z,10.26
2018-07-01T03:15:48.190Z,10.12
2018-07-01T03:18:25.742Z,10.25
2018-07-01T03:21:01.875Z,10.29
2018-07-01T03:23:37.315Z,10.53
2018-07-01T03:26:12.628Z,10.68
2018-07-01T03:28:48.488Z,10.66
2018-07-01T03:31:25.060Z,10.44
2018-07-01T03:34:01.488Z,10.58
2018-07-01T03:36:38.048Z,10.83
2018-07-01T03:39:14.002Z,10.80
2018-07-01T03:41:50.791Z,10.67
2018-07-01T03:44:26.438Z,10.55
2018-07-01T03:47:03.410Z,10.58
2018-07-01T03:49:39.083Z,10.57
2018-07-01T03:52:14.854Z,10.51
2018-07-01T03:54:51.093Z,10.59
2018-07-01T03:57:26.793Z,10.81
2018-07-01T04:00:02.448Z,10.91
2018-07-01T04:02:38.759Z,11.09
2018-07-01T04:05:15.177Z,11.20
2018-07-01T04:07:51.206Z,11.29
2018-07-01T04:10:26.928Z,11.31
2018-07-01T04:13:03.372Z,11.58
2018-07-01T04:15:40.233Z,11.58
2018-07-01T04:18:17.267Z,11.76
2018-07-01T04:20:53.129Z,11.99
2018-07-01T04:23:30.284Z,12.07
2018-07-01T04:26:05.854Z,12.15
2018-07-01T04:28:41.870Z,12.38
2018-07-01T04:31:19.140Z,12.59
2018-07-01T04:33:56.238Z,12.75
2018-07-01T04:36:31.995Z,12.91
2018-07-01T04:39:08.893Z,13.06
2018-07-01T04:41:45.463Z,13.29
2018-07-01T04:44:21.233Z,13.47
2018-07-01T04:46:57.560Z,13.55
2018-07-01T04:49:33.802Z,13.66
2018-07-01T04:52:10.009Z,13.75
2018-07-01T04:54:46.565Z,13.80
2018-07-01T04:57:23.021Z,13.85
2018-07-01T04:59:59.831Z,13.96
2018-07-01T05:02:35.725Z,14.10
2018-07-01T05:05:12.315Z,14.20
2018-07-01T05:07:48.029Z,14.27
2018-07-01T05:10:23.805Z,14.26
2018-07-01T05:13:01.149Z,14.42
2018-07-01T05:15:37.273Z,14.52
2018-07-01T05:18:13.833Z,14.67
2018-07-01T05:20:49.315Z,14.73
2018-07-01T05:23:25.133Z,14.81
2018-07-01T05:26:00.713Z,14.88
2018-07-01T05:28:36.561Z,14.98
2018-07-01T05:31:12.965Z,15.03
2018-07-01T05:33:48.989Z,15.01
2018-07-01T05:36:24.821Z,15.19
2018-07-01T05:39:02.152Z,15.23
2018-07-01T05:41:40.127Z,15.35
2018-07-01T05:44:16.055Z,15.39
2018-07-01T05:46:51.455Z,15.56
2018-07-01T05:49:27.693Z,15.66
2018-07-01T05:52:03.342Z,15.83
2018-07-01T05:54:38.851Z,15.87
2018-07-01T05:57:15.029Z,16.05
2018-07-01T05:59:51.570Z,16.16
2018-07-01T06:02:27.179Z,16.26
2018-07-01T06:05:03.623Z,16.34
2018-07-01T06:07:39.157Z,16.40
2018-07-01T06:10:15.825Z,16.52
2018-07-01T06:12:51.645Z,16.62
2018-07-01T06:15:28.145Z,16.81
2018-07-01T06:18:04.367Z,16.87
2018-07-01T06:20:41.349Z,16.98
2018-07-01T06:23:17.460Z,17.06
2018-07-01T06:25:53.288Z,17.21
2018-07-01T06:28:30.169Z,17.27
2018-07-01T06:31:06.308Z,17.57
2018-07-01T06:33:43.159Z,17.71
2018-07-01T06:36:21.568Z,17.75
2018-07-01T06:38:57.899Z,17.78
2018-07-01T06:41:35.032Z,17.87
2018-07-01T06:44:12.334Z,18.02
2018-07-01T06:46:48.989Z,18.21
2018-07-01T06:49:24.578Z,18.23
2018-07-01T06:52:02.089Z,18.27
2018-07-01T06:54:38.644Z,18.34
2018-07-01T06:57:14.732Z,18.50
2018-07-01T06:59:51.674Z,18.76
2018-07-01T07:02:29.106Z,18.85
2018-07-01T07:05:05.467Z,19.18
2018-07-01T07:07:43.125Z,19.24
2018-07-01T07:10:20.544Z,19.30
2018-07-01T07:12:56.318Z,19.23
2018-07-01T07:15:32.875Z,19.55
2018-07-01T07:18:09.744Z,19.79
2018-07-01T07:20:46.326Z,18.87
2018-07-01T07:23:22.176Z,19.18
2018-07-01T07:25:58.014Z,19.70
2018-07-01T07:28:35.114Z,20.00
2018-07-01T07:31:11.694Z,20.35
2018-07-01T07:33:47.658Z,20.74
2018-07-01T07:36:24.026Z,20.85
2018-07-01T07:39:00.148Z,20.94
2018-07-01T07:41:35.808Z,21.17
2018-07-01T07:44:12.358Z,21.03
2018-07-01T07:46:49.348Z,22.22
2018-07-01T07:49:29.780Z,22.11
2018-07-01T07:52:05.919Z,22.39
2018-07-01T07:54:42.324Z,22.45
2018-07-01T07:57:25.302Z,21.86
2018-07-01T08:00:01.336Z,21.52
2018-07-01T08:02:37.992Z,21.57
2018-07-01T08:05:14.586Z,21.83
2018-07-01T08:07:50.846Z,22.37
2018-07-01T08:10:29.936Z,22.53
2018-07-01T08:13:06.270Z,22.97
2018-07-01T08:15:42.973Z,23.25
2018-07-01T08:18:19.638Z,23.43
2018-07-01T08:20:55.885Z,23.34
2018-07-01T08:23:32.913Z,23.41
2018-07-01T08:26:30.670Z,23.49
2018-07-01T08:29:10.257Z,23.03
2018-07-01T08:32:28.611Z,23.39
2018-07-01T08:38:27.223Z,23.59
2018-07-01T08:41:17.739Z,23.54
2018-07-01T08:43:55.510Z,22.82
2018-07-01T08:46:42.993Z,22.76
2018-07-01T08:59:26.609Z,24.11
2018-07-01T09:05:32.986Z,24.31
2018-07-01T09:08:37.119Z,25.22
2018-07-01T09:11:13.143Z,25.84
2018-07-01T09:13:57.952Z,24.61
2018-07-01T09:32:46.396Z,26.56
2018-07-01T09:35:35.658Z,27.33
2018-07-01T10:20:34.023Z,30.56
2018-07-01T10:23:29.723Z,28.69
2018-07-01T10:26:27.658Z,28.47
2018-07-01T10:29:39.476Z,30.60
2018-07-01T10:32:27.614Z,28.95
2018-07-01T10:35:16.319Z,29.88
2018-07-01T10:38:46.893Z,29.65
2018-07-01T10:44:48.755Z,28.95
2018-07-01T10:47:43.708Z,30.85
2018-07-01T10:50:21.498Z,30.40
2018-07-01T10:52:59.198Z,30.33
2018-07-01T10:55:36.359Z,29.33
2018-07-01T10:58:18.925Z,31.16
2018-07-01T11:06:33.348Z,30.18
2018-07-01T11:09:15.999Z,31.23
2018-07-01T11:11:52.252Z,30.92
2018-07-01T11:14:42.424Z,33.18
2018-07-01T11:17:44.526Z,32.90
2018-07-01T11:20:34.431Z,34.00
2018-07-01T11:23:21.043Z,33.24
2018-07-01T11:29:02.651Z,33.15
2018-07-01T11:31:48.179Z,33.80
2018-07-01T11:34:25.749Z,32.65
2018-07-01T11:40:12.392Z,33.14
2018-07-01T11:42:56.813Z,34.67
2018-07-01T11:51:17.552Z,34.89
2018-07-01T11:54:06.984Z,33.97
2018-07-01T11:56:45.706Z,33.80
2018-07-01T11:59:40.991Z,35.27
2018-07-01T12:02:33.102Z,34.49
2018-07-01T12:05:16.663Z,32.40
2018-07-01T12:07:48.650Z,35.20
2018-07-01T12:10:32.190Z,34.76
2018-07-01T12:13:27.516Z,33.35
2018-07-01T12:16:17.325Z,33.80
2018-07-01T12:18:56.079Z,34.81
2018-07-01T12:21:39.512Z,33.67
2018-07-01T12:24:35.490Z,34.79
2018-07-01T12:27:22.082Z,33.97
2018-07-01T12:33:04.992Z,35.43
2018-07-01T12:35:56.135Z,37.24
2018-07-01T12:38:40.620Z,37.61
2018-07-01T12:44:38.433Z,36.14
2018-07-01T12:47:23.371Z,36.35
2018-07-01T12:50:10.405Z,35.38
2018-07-01T12:52:48.584Z,33.64
2018-07-01T12:55:30.791Z,37.18
2018-07-01T12:58:11.377Z,37.05
2018-07-01T13:00:57.751Z,37.43
2018-07-01T13:03:36.413Z,35.41
2018-07-01T13:06:15.162Z,35.45
2018-07-01T13:08:56.508Z,36.91
2018-07-01T13:11:51.762Z,37.52
2018-07-01T13:14:33.107Z,37.28
2018-07-01T13:17:13.291Z,36.07
2018-07-01T13:19:51.769Z,33.57
2018-07-01T13:22:33.489Z,37.05
2018-07-01T13:25:18.684Z,36.51
2018-07-01T13:27:59.732Z,37.12
2018-07-01T13:30:37.343Z,32.57
2018-07-01T13:33:13.596Z,32.89
2018-07-01T13:35:55.980Z,36.39
2018-07-01T13:38:35.736Z,37.18
2018-07-01T13:41:18.077Z,37.35
2018-07-01T13:43:58.840Z,37.15
2018-07-01T13:46:34.781Z,37.10
2018-07-01T13:49:10.722Z,38.54
2018-07-01T13:51:46.644Z,36.26
2018-07-01T13:54:23.761Z,37.08
2018-07-01T13:57:03.743Z,37.15
2018-07-01T13:59:39.938Z,36.92
2018-07-01T14:02:16.136Z,37.14
2018-07-01T14:04:53.959Z,36.09
2018-07-01T14:07:43.623Z,38.34
2018-07-01T14:10:19.693Z,38.62
2018-07-01T14:15:55.683Z,38.88
2018-07-01T14:18:32.915Z,41.34
2018-07-01T14:21:13.706Z,40.28
2018-07-01T14:23:54.623Z,36.71
2018-07-01T14:26:44.646Z,37.06
2018-07-01T14:29:34.545Z,38.59
2018-07-01T14:32:27.233Z,36.66
2018-07-01T14:35:07.515Z,36.14
2018-07-01T14:37:45.500Z,39.58
2018-07-01T14:40:27.209Z,37.79
2018-07-01T14:43:09.854Z,39.06
2018-07-01T14:48:55.487Z,37.92
2018-07-01T14:51:43.673Z,34.29
2018-07-01T14:54:37.710Z,36.20
2018-07-01T14:57:17.320Z,34.59
2018-07-01T14:59:59.653Z,36.18
2018-07-01T15:02:48.459Z,37.58
2018-07-01T15:05:30.276Z,36.63
2018-07-01T15:08:13.630Z,33.84
2018-07-01T15:13:49.508Z,37.81
2018-07-01T15:16:33.828Z,36.28
2018-07-01T15:19:13.087Z,36.70
2018-07-01T15:22:00.165Z,34.38
2018-07-01T15:24:46.844Z,36.73
2018-07-01T15:27:29.122Z,39.07
2018-07-01T15:30:13.365Z,36.65
2018-07-01T15:32:54.997Z,38.55
2018-07-01T15:35:36.271Z,36.70
2018-07-01T15:38:20.455Z,37.04
2018-07-01T15:41:15.500Z,38.10
2018-07-01T15:44:07.698Z,39.04
2018-07-01T15:46:44.292Z,40.20
2018-07-01T15:49:20.825Z,37.28
2018-07-01T15:51:58.922Z,36.50
2018-07-01T15:54:35.743Z,33.53
2018-07-01T15:57:11.441Z,35.38
2018-07-01T15:59:48.327Z,37.38
2018-07-01T16:02:30.094Z,35.78
2018-07-01T16:05:07.922Z,35.28
2018-07-01T16:07:43.918Z,34.88
2018-07-01T16:10:24.324Z,36.20
2018-07-01T16:13:04.863Z,33.61
2018-07-01T16:15:55.847Z,35.42
2018-07-01T16:21:32.695Z,34.60
2018-07-01T16:24:10.277Z,36.06
2018-07-01T16:28:04.520Z,34.79
2018-07-01T16:33:34.315Z,32.57
2018-07-01T16:39:34.885Z,30.97
2018-07-01T16:42:11.596Z,32.44
2018-07-01T16:45:11.626Z,33.34
2018-07-01T16:48:02.978Z,32.72
2018-07-01T16:50:41.890Z,32.29
2018-07-01T16:53:17.579Z,32.67
2018-07-01T16:55:53.277Z,33.33
2018-07-01T16:58:33.359Z,32.88
2018-07-01T17:01:12.829Z,32.38
2018-07-01T17:03:49.005Z,32.83
2018-07-01T17:06:29.389Z,32.93
2018-07-01T17:09:15.032Z,32.58
2018-07-01T17:11:51.702Z,30.56
2018-07-01T17:14:33.680Z,31.03
2018-07-01T17:17:14.978Z,28.39
2018-07-01T17:19:57.974Z,25.59
2018-07-01T17:22:34.081Z,25.30
2018-07-01T17:25:09.581Z,24.87
2018-07-01T17:27:45.952Z,24.62
2018-07-01T17:30:22.644Z,24.47
2018-07-01T17:33:34.726Z,24.28
2018-07-01T17:36:10.846Z,24.16
2018-07-01T17:38:50.946Z,24.08
2018-07-01T17:41:27.571Z,24.09
2018-07-01T17:44:03.456Z,23.92
2018-07-01T17:46:39.975Z,23.85
2018-07-01T17:49:16.549Z,23.89
2018-07-01T17:51:52.881Z,23.96
2018-07-01T17:54:31.356Z,23.74
2018-07-01T17:57:07.485Z,23.69
2018-07-01T17:59:43.771Z,23.49
2018-07-01T18:02:20.324Z,23.29
2018-07-01T18:04:56.887Z,23.21
2018-07-01T18:13:24.446Z,22.91
2018-07-01T18:24:35.141Z,22.72
2018-07-01T18:27:12.631Z,22.48
2018-07-01T18:30:05.031Z,22.34
2018-07-01T18:32:48.079Z,22.22
2018-07-01T18:35:36.149Z,22.14
2018-07-01T18:41:32.553Z,21.94
2018-07-01T18:44:24.081Z,21.80
2018-07-01T18:47:17.810Z,21.65
2018-07-01T18:50:15.344Z,21.59
2018-07-01T18:53:28.233Z,21.46
2018-07-01T18:56:34.195Z,21.33
2018-07-01T19:02:19.995Z,21.06
2018-07-01T19:05:18.773Z,20.93
2018-07-01T19:17:18.815Z,20.49
2018-07-01T19:20:11.055Z,20.23
2018-07-01T19:23:03.850Z,20.08
2018-07-01T19:25:40.310Z,20.11
2018-07-01T19:28:19.455Z,19.91
2018-07-01T19:31:07.721Z,19.74
2018-07-01T19:33:46.909Z,19.80
2018-07-01T19:36:33.145Z,19.75
2018-07-01T19:39:20.406Z,19.64
2018-07-01T19:41:59.638Z,19.49
2018-07-01T19:44:35.920Z,19.37
2018-07-01T19:47:14.344Z,19.19
2018-07-01T19:49:49.858Z,19.09
2018-07-01T19:52:25.552Z,19.12
2018-07-01T19:55:02.880Z,18.87
2018-07-01T19:57:39.865Z,18.92
2018-07-01T20:00:16.391Z,18.95
2018-07-01T20:02:59.468Z,18.94
2018-07-01T20:05:41.619Z,18.93
2018-07-01T20:08:19.533Z,18.88
2018-07-01T20:10:57.146Z,18.70
2018-07-01T20:13:33.342Z,18.54
2018-07-01T20:16:09.452Z,18.41
2018-07-01T20:18:46.827Z,18.53
2018-07-01T20:21:24.036Z,18.47
2018-07-01T20:27:18.314Z,18.48
2018-07-01T20:29:55.675Z,18.39
2018-07-01T20:32:33.120Z,18.25
2018-07-01T20:35:08.965Z,18.10
2018-07-01T20:37:45.228Z,17.87
2018-07-01T20:40:22.722Z,18.00
2018-07-01T20:42:59.617Z,17.87
2018-07-01T20:45:41.080Z,17.75
2018-07-01T20:48:20.824Z,17.78
2018-07-01T20:50:58.206Z,17.65
2018-07-01T20:53:39.028Z,17.44
2018-07-01T20:56:18.442Z,17.28
2018-07-01T20:59:06.442Z,17.03
2018-07-01T21:01:48.868Z,16.99
2018-07-01T21:04:30.321Z,16.97
2018-07-01T21:07:09.142Z,17.13
2018-07-01T21:09:51.353Z,17.18
2018-07-01T21:12:33.244Z,17.21
2018-07-01T21:15:17.365Z,17.03
2018-07-01T21:18:01.906Z,16.93
2018-07-01T21:20:48.518Z,16.86
2018-07-01T21:23:36.084Z,16.63
2018-07-01T21:26:12.545Z,16.58
2018-07-01T21:28:54.160Z,16.64
2018-07-01T21:31:52.479Z,16.56
2018-07-01T21:34:40.295Z,16.58
2018-07-01T21:37:25.276Z,16.74
2018-07-01T21:40:08.177Z,16.68
2018-07-01T21:42:51.203Z,16.59
2018-07-01T21:45:34.498Z,16.35
2018-07-01T21:48:18.388Z,16.27
2018-07-01T21:51:04.721Z,16.15
2018-07-01T21:53:48.847Z,16.15
2018-07-01T21:59:22.811Z,15.95
2018-07-01T22:02:07.555Z,15.79
2018-07-01T22:04:46.968Z,15.85
2018-07-01T22:07:23.520Z,15.92
2018-07-01T22:10:00.518Z,16.00
2018-07-01T22:12:47.344Z,15.89
2018-07-01T22:15:34.760Z,15.83
2018-07-01T22:18:12.252Z,15.77
2018-07-01T22:20:48.015Z,15.78
2018-07-01T22:23:24.166Z,15.72
2018-07-01T22:25:59.959Z,15.73
2018-07-01T22:28:38.575Z,15.79
2018-07-01T22:31:14.967Z,15.67
2018-07-01T22:33:51.502Z,15.72
2018-07-01T22:36:27.993Z,15.65
2018-07-01T22:39:05.107Z,15.65
2018-07-01T22:41:41.230Z,15.70
2018-07-01T22:44:17.177Z,15.52
2018-07-01T22:46:53.698Z,15.45
2018-07-01T22:49:30.414Z,15.53
2018-07-01T22:52:06.261Z,15.54
2018-07-01T22:54:41.967Z,15.51
2018-07-01T22:57:18.051Z,15.17
2018-07-01T22:59:54.496Z,15.09
2018-07-01T23:02:51.966Z,15.00
2018-07-01T23:05:27.696Z,14.87
2018-07-01T23:08:03.484Z,14.74
2018-07-01T23:10:40.062Z,14.81
2018-07-01T23:13:15.988Z,14.93
2018-07-01T23:15:53.062Z,14.74
2018-07-01T23:18:29.120Z,14.79
2018-07-01T23:21:05.485Z,14.68
2018-07-01T23:23:41.515Z,14.53
2018-07-01T23:26:17.625Z,14.43
2018-07-01T23:28:53.394Z,14.46
2018-07-01T23:31:29.887Z,14.47
2018-07-01T23:34:05.636Z,14.33
2018-07-01T23:36:42.408Z,14.32
2018-07-01T23:39:19.133Z,14.12
2018-07-01T23:41:54.980Z,14.04
2018-07-01T23:44:30.686Z,14.00
2018-07-01T23:47:06.683Z,13.94
2018-07-01T23:49:42.327Z,13.91
2018-07-01T23:52:18.923Z,13.71
2018-07-01T23:54:55.569Z,13.87
2018-07-01T23:57:33.678Z,13.77
